createdAt,value
2023-03-14T00:00:41.955Z,2432.00
2023-03-14T00:01:41.958Z,2457.00
2023-03-14T00:02:42.040Z,2453.00
2023-03-14T00:07:41.887Z,2424.00
2023-03-14T00:08:41.841Z,2422.00
2023-03-14T00:09:41.796Z,2412.00
2023-03-14T00:10:41.802Z,2416.00
2023-03-14T00:11:41.775Z,2437.00
2023-03-14T00:12:41.742Z,2418.00
2023-03-14T00:13:41.733Z,2414.00
2023-03-14T00:14:41.721Z,2416.00
2023-03-14T00:15:41.768Z,2416.00
2023-03-14T00:16:41.706Z,2407.00
2023-03-14T03:28:39.727Z,530.00
2023-03-14T03:29:39.750Z,519.00
2023-03-14T03:30:39.788Z,512.00
2023-03-14T03:31:39.768Z,515.00
2023-03-14T03:32:39.812Z,510.00
2023-03-14T03:33:39.823Z,503.00
2023-03-14T03:34:39.818Z,501.00
2023-03-14T03:35:39.840Z,506.00
2023-03-14T03:36:39.862Z,506.00
2023-03-14T03:37:39.871Z,504.00
2023-03-14T03:38:39.894Z,505.00
2023-03-14T03:39:39.921Z,502.00
2023-03-14T03:40:39.922Z,505.00
2023-03-14T03:41:39.954Z,503.00
2023-03-14T03:42:39.929Z,501.00
2023-03-14T03:43:39.951Z,507.00
2023-03-14T03:44:39.958Z,502.00
2023-03-14T03:45:39.980Z,503.00
2023-03-14T03:46:39.990Z,508.00
2023-03-14T03:47:39.989Z,504.00
2023-03-14T03:48:40.024Z,502.00
2023-03-14T03:49:40.022Z,500.00
2023-03-14T03:50:40.040Z,503.00
2023-03-14T03:51:40.039Z,506.00
2023-03-14T03:52:40.058Z,504.00
2023-03-14T03:53:40.099Z,508.00
2023-03-14T03:54:40.067Z,504.00
2023-03-14T03:55:40.091Z,504.00
2023-03-14T03:56:40.140Z,505.00
2023-03-14T03:57:40.124Z,505.00
2023-03-14T03:58:40.136Z,504.00
2023-03-14T03:59:40.142Z,502.00
2023-03-14T04:00:40.171Z,498.00
2023-03-14T04:01:40.176Z,493.00
2023-03-14T04:02:40.251Z,501.00
2023-03-14T04:03:40.349Z,501.00
2023-03-14T04:04:40.232Z,499.00
2023-03-14T04:05:40.226Z,498.00
2023-03-14T04:06:40.294Z,495.00
2023-03-14T04:07:40.259Z,497.00
2023-03-14T04:08:40.269Z,501.00
2023-03-14T04:09:40.299Z,505.00
2023-03-14T04:10:40.315Z,506.00
2023-03-14T04:11:40.315Z,509.00
2023-03-14T04:12:40.344Z,507.00
2023-03-14T04:13:40.363Z,511.00
2023-03-14T04:14:40.370Z,516.00
2023-03-14T04:15:40.414Z,517.00
2023-03-14T04:16:40.395Z,525.00
2023-03-14T04:17:40.407Z,526.00
2023-03-14T04:18:40.423Z,528.00
2023-03-14T04:19:40.447Z,532.00
2023-03-14T04:20:40.446Z,533.00
2023-03-14T04:21:40.481Z,535.00
2023-03-14T04:22:41.393Z,537.00
2023-03-14T04:23:40.491Z,535.00
2023-03-14T04:24:40.511Z,538.00
2023-03-14T04:25:40.513Z,544.00
2023-03-14T04:26:40.528Z,546.00
2023-03-14T04:27:40.538Z,543.00
2023-03-14T04:28:40.549Z,544.00
2023-03-14T04:29:40.576Z,547.00
2023-03-14T04:30:40.582Z,548.00
2023-03-14T04:31:40.633Z,552.00
2023-03-14T04:32:40.621Z,549.00
2023-03-14T04:33:40.621Z,559.00
2023-03-14T04:34:40.643Z,559.00
2023-03-14T04:35:40.667Z,559.00
2023-03-14T04:36:40.676Z,560.00
2023-03-14T04:37:40.682Z,562.00
2023-03-14T04:38:40.718Z,566.00
2023-03-14T04:39:40.792Z,572.00
2023-03-14T04:40:40.767Z,572.00
2023-03-14T04:41:40.776Z,571.00
2023-03-14T04:42:40.790Z,572.00
2023-03-14T04:43:40.797Z,572.00
2023-03-14T04:44:40.832Z,572.00
2023-03-14T04:45:40.833Z,574.00
2023-03-14T04:46:40.878Z,571.00
2023-03-14T04:47:40.884Z,573.00
2023-03-14T04:48:40.901Z,572.00
2023-03-14T04:49:40.931Z,569.00
2023-03-14T04:50:40.949Z,568.00
2023-03-14T04:51:40.971Z,567.00
2023-03-14T04:52:40.994Z,565.00
2023-03-14T04:53:41.000Z,562.00
2023-03-14T04:54:41.019Z,565.00
2023-03-14T04:55:41.045Z,563.00
2023-03-14T04:56:41.049Z,564.00
2023-03-14T04:57:41.076Z,563.00
2023-03-14T04:58:41.088Z,558.00
2023-03-14T04:59:41.100Z,561.00
2023-03-14T05:00:41.120Z,562.00
2023-03-14T05:01:41.188Z,563.00
2023-03-14T05:02:41.174Z,567.00
2023-03-14T05:03:41.188Z,577.00
2023-03-14T05:04:41.229Z,579.00
2023-03-14T05:05:41.208Z,577.00
2023-03-14T05:06:41.228Z,579.00
2023-03-14T05:07:41.254Z,579.00
2023-03-14T05:08:41.293Z,585.00
2023-03-14T05:09:41.305Z,586.00
2023-03-14T05:10:41.310Z,586.00
2023-03-14T05:11:41.325Z,587.00
2023-03-14T05:12:41.346Z,581.00
2023-03-14T05:13:41.360Z,587.00
2023-03-14T05:14:41.423Z,589.00
2023-03-14T05:15:41.416Z,589.00
2023-03-14T05:16:41.420Z,592.00
2023-03-14T05:17:41.451Z,590.00
2023-03-14T05:18:41.453Z,587.00
2023-03-14T05:19:41.509Z,588.00
2023-03-14T05:20:41.501Z,580.00
2023-03-14T05:21:41.525Z,581.00
2023-03-14T05:22:41.544Z,586.00
2023-03-14T05:23:41.548Z,591.00
2023-03-14T05:24:41.582Z,604.00
2023-03-14T05:25:41.617Z,605.00
2023-03-14T05:26:41.612Z,601.00
2023-03-14T05:27:41.640Z,594.00
2023-03-14T05:28:41.653Z,596.00
2023-03-14T05:29:41.666Z,593.00
2023-03-14T05:30:41.700Z,598.00
2023-03-14T05:31:41.760Z,594.00
2023-03-14T05:32:41.768Z,597.00
2023-03-14T05:33:41.749Z,592.00
2023-03-14T05:34:41.759Z,591.00
2023-03-14T05:35:41.790Z,586.00
2023-03-14T05:36:41.784Z,587.00
2023-03-14T05:37:41.800Z,588.00
2023-03-14T05:38:41.840Z,593.00
2023-03-14T05:39:41.831Z,604.00
2023-03-14T05:40:41.856Z,626.00
2023-03-14T05:41:41.876Z,630.00
2023-03-14T05:42:41.884Z,642.00
2023-03-14T05:43:42.012Z,649.00
2023-03-14T05:44:41.928Z,660.00
2023-03-14T05:45:42.020Z,682.00
2023-03-14T05:46:41.964Z,732.00
2023-03-14T05:47:42.005Z,762.00
2023-03-14T05:48:42.020Z,804.00
2023-03-14T05:49:42.034Z,852.00
2023-03-14T05:50:42.064Z,905.00
2023-03-14T05:51:42.074Z,907.00
2023-03-14T05:52:42.094Z,918.00
2023-03-14T05:53:42.114Z,956.00
2023-03-14T05:54:42.151Z,1021.00
2023-03-14T05:55:42.167Z,1132.00
2023-03-14T05:56:42.173Z,1162.00
2023-03-14T05:57:42.190Z,1189.00
2023-03-14T05:58:42.225Z,1202.00
2023-03-14T05:59:42.234Z,1214.00
2023-03-14T06:00:42.274Z,1235.00
2023-03-14T06:01:42.358Z,1263.00
2023-03-14T06:02:42.315Z,1265.00
2023-03-14T06:03:42.381Z,1267.00
2023-03-14T06:04:42.371Z,1274.00
2023-03-14T06:05:42.436Z,1277.00
2023-03-14T06:06:42.408Z,1280.00
2023-03-14T06:07:42.446Z,1259.00
2023-03-14T06:08:42.470Z,1264.00
2023-03-14T06:09:42.505Z,1264.00
2023-03-14T06:10:42.522Z,1255.00
2023-03-14T06:11:42.547Z,1264.00
2023-03-14T06:12:42.549Z,1235.00
2023-03-14T06:13:42.576Z,1228.00
2023-03-14T06:14:42.601Z,1226.00
2023-03-14T06:15:42.633Z,1261.00
2023-03-14T06:16:42.670Z,1248.00
2023-03-14T06:17:42.665Z,1266.00
2023-03-14T06:18:42.692Z,1278.00
2023-03-14T06:19:42.724Z,1323.00
2023-03-14T06:20:42.736Z,1354.00
2023-03-14T06:21:42.773Z,1391.00
2023-03-14T06:22:42.803Z,1423.00
2023-03-14T06:23:42.818Z,1439.00
2023-03-14T06:24:42.852Z,1464.00
2023-03-14T06:25:42.861Z,1485.00
2023-03-14T06:26:42.882Z,1505.00
2023-03-14T06:27:42.894Z,1533.00
2023-03-14T06:28:42.940Z,1561.00
2023-03-14T06:29:42.945Z,1557.00
2023-03-14T06:30:42.994Z,1550.00
2023-03-14T06:31:43.013Z,1551.00
2023-03-14T06:32:43.037Z,1550.00
2023-03-14T07:08:42.853Z,3471.00
2023-03-14T07:09:42.848Z,3475.00
2023-03-14T07:10:42.856Z,3521.00
2023-03-14T07:11:42.826Z,3529.00
2023-03-14T07:13:42.864Z,3534.00
2023-03-14T07:15:42.840Z,3574.00
2023-03-14T07:16:42.803Z,3583.00
2023-03-14T07:17:42.801Z,3584.00
2023-03-14T07:18:42.811Z,3598.00
2023-03-14T07:20:42.760Z,3576.00
2023-03-14T07:21:42.755Z,3572.00
2023-03-14T07:22:42.775Z,3559.00
2023-03-14T07:23:42.744Z,3560.00
2023-03-14T07:24:42.742Z,3558.00
2023-03-14T07:25:42.710Z,3539.00
2023-03-14T07:26:42.732Z,3527.00
2023-03-14T07:27:42.710Z,3537.00
2023-03-14T07:29:42.673Z,3522.00
2023-03-14T07:30:42.741Z,3503.00
2023-03-14T07:31:42.664Z,3512.00
2023-03-14T07:32:42.718Z,3500.00
2023-03-14T07:33:42.642Z,3493.00
2023-03-14T07:34:42.611Z,3490.00
2023-03-14T07:35:42.706Z,3488.00
2023-03-14T07:36:42.587Z,3490.00
2023-03-14T07:37:42.608Z,3488.00
2023-03-14T07:38:42.568Z,3475.00
2023-03-14T07:39:42.587Z,3468.00
2023-03-14T07:40:42.541Z,3455.00
2023-03-14T07:41:42.522Z,3454.00
2023-03-14T07:42:42.550Z,3449.00
2023-03-14T07:43:42.492Z,3328.00
2023-03-14T07:44:42.519Z,3053.00
2023-03-14T07:45:43.380Z,2835.00
2023-03-14T07:46:42.510Z,2661.00
2023-03-14T07:48:42.503Z,2591.00
2023-03-14T07:50:42.500Z,2646.00
2023-03-14T07:51:42.515Z,2640.00
2023-03-14T07:52:42.529Z,2641.00
2023-03-14T07:53:42.485Z,2645.00
2023-03-14T07:54:42.496Z,2656.00
2023-03-14T07:55:42.499Z,2687.00
2023-03-14T07:56:42.479Z,2737.00
2023-03-14T07:57:42.492Z,2769.00
2023-03-14T07:58:42.464Z,2778.00
2023-03-14T07:59:42.458Z,2811.00
2023-03-14T08:00:42.433Z,2824.00
2023-03-14T08:01:42.410Z,2831.00
2023-03-14T08:02:42.409Z,2854.00
2023-03-14T08:03:42.415Z,2838.00
2023-03-14T08:04:42.328Z,2868.00
2023-03-14T08:05:42.316Z,2858.00
2023-03-14T08:06:42.308Z,2861.00
2023-03-14T08:07:42.258Z,2884.00
2023-03-14T08:08:42.250Z,2917.00
2023-03-14T08:09:42.240Z,2937.00
2023-03-14T08:10:42.197Z,2956.00
2023-03-14T08:11:42.217Z,2944.00
2023-03-14T08:12:42.190Z,2964.00
2023-03-14T08:13:42.181Z,2966.00
2023-03-14T08:14:42.144Z,2979.00
2023-03-14T08:15:42.158Z,2996.00
2023-03-14T08:16:42.135Z,3011.00
2023-03-14T08:17:42.103Z,3012.00
2023-03-14T08:18:42.082Z,3016.00
2023-03-14T08:19:42.048Z,3015.00
2023-03-14T08:20:42.034Z,3032.00
2023-03-14T08:21:42.039Z,3046.00
2023-03-14T08:22:41.997Z,3062.00
2023-03-14T08:23:41.992Z,3073.00
2023-03-14T08:24:41.950Z,3072.00
2023-03-14T08:25:42.034Z,3070.00
2023-03-14T08:26:41.921Z,3073.00
2023-03-14T08:27:41.888Z,3074.00
2023-03-14T08:28:41.879Z,3075.00
2023-03-14T08:29:41.858Z,3080.00
2023-03-14T08:30:43.697Z,3065.00
2023-03-14T08:31:41.886Z,3073.00
2023-03-14T08:32:41.868Z,3062.00
2023-03-14T08:33:41.804Z,3050.00
2023-03-14T08:34:41.776Z,3056.00
2023-03-14T08:35:41.768Z,3060.00
2023-03-14T08:36:41.839Z,3009.00
2023-03-14T08:37:41.738Z,2992.00
2023-03-14T08:38:41.737Z,2977.00
2023-03-14T08:39:41.692Z,2987.00
2023-03-14T10:15:41.717Z,1531.00
2023-03-14T10:21:41.732Z,1490.00
2023-03-14T10:22:41.714Z,1463.00
2023-03-14T10:23:41.703Z,1463.00
2023-03-14T10:24:41.699Z,1493.00
2023-03-14T10:25:41.722Z,1520.00
2023-03-14T10:26:41.723Z,1532.00
2023-03-14T10:27:41.705Z,1528.00
2023-03-14T10:28:41.708Z,1505.00
2023-03-14T10:29:41.710Z,1480.00
2023-03-14T10:30:41.752Z,1485.00
2023-03-14T10:31:41.716Z,1509.00
2023-03-14T10:32:41.774Z,1505.00
2023-03-14T10:33:41.739Z,1476.00
2023-03-14T10:34:41.752Z,1496.00
2023-03-14T10:35:41.803Z,1475.00
2023-03-14T10:36:41.727Z,1481.00
2023-03-14T10:37:41.730Z,1498.00
2023-03-14T10:38:41.736Z,1468.00
2023-03-14T10:39:41.799Z,1499.00
2023-03-14T10:40:41.749Z,1503.00
2023-03-14T10:41:41.759Z,1531.00
2023-03-14T10:42:41.857Z,1532.00
2023-03-14T10:43:41.770Z,1458.00
2023-03-14T10:44:41.748Z,1401.00
2023-03-14T10:45:41.789Z,1342.00
2023-03-14T10:46:41.851Z,1239.00
2023-03-14T10:47:41.784Z,1180.00
2023-03-14T10:48:41.765Z,1137.00
2023-03-14T10:49:41.794Z,1180.00
2023-03-14T10:50:41.812Z,1185.00
2023-03-14T10:51:41.824Z,1223.00
2023-03-14T10:52:57.720Z,1305.00
2023-03-14T10:53:42.818Z,1308.00
2023-03-14T10:54:41.886Z,1306.00
2023-03-14T10:55:41.872Z,1109.00
2023-03-14T10:56:41.858Z,908.00
2023-03-14T10:57:41.881Z,840.00
2023-03-14T10:58:41.875Z,693.00
2023-03-14T10:59:41.901Z,646.00
2023-03-14T11:00:41.916Z,619.00
2023-03-14T11:01:41.977Z,604.00
2023-03-14T11:02:41.947Z,577.00
2023-03-14T11:03:42.081Z,532.00
2023-03-14T11:04:42.016Z,517.00
2023-03-14T11:05:42.032Z,514.00
2023-03-14T11:06:42.033Z,500.00
2023-03-14T11:07:42.078Z,498.00
2023-03-14T11:08:42.085Z,516.00
2023-03-14T11:09:42.128Z,532.00
2023-03-14T11:10:42.164Z,541.00
2023-03-14T11:11:42.190Z,545.00
2023-03-14T11:12:42.204Z,527.00
2023-03-14T11:13:42.243Z,519.00
2023-03-14T11:14:42.288Z,536.00
2023-03-14T11:15:42.305Z,526.00
2023-03-14T11:16:42.291Z,533.00
2023-03-14T11:17:42.365Z,515.00
2023-03-14T11:18:42.342Z,527.00
2023-03-14T11:19:42.526Z,526.00
2023-03-14T11:20:42.368Z,524.00
2023-03-14T11:21:42.396Z,524.00
2023-03-14T11:22:42.419Z,525.00
2023-03-14T11:23:42.440Z,522.00
2023-03-14T11:24:42.485Z,524.00
2023-03-14T11:25:42.514Z,519.00
2023-03-14T11:26:42.542Z,518.00
2023-03-14T11:27:42.542Z,529.00
2023-03-14T11:28:42.556Z,530.00
2023-03-14T11:29:42.593Z,525.00
2023-03-14T11:30:42.622Z,526.00
2023-03-14T11:31:42.630Z,526.00
2023-03-14T11:32:42.663Z,525.00
2023-03-14T11:33:42.709Z,526.00
2023-03-14T11:34:42.717Z,518.00
2023-03-14T11:35:42.774Z,508.00
2023-03-14T11:36:42.798Z,496.00
2023-03-14T11:37:42.821Z,515.00
2023-03-14T11:38:42.840Z,524.00
2023-03-14T11:39:42.902Z,536.00
2023-03-14T11:40:42.895Z,561.00
2023-03-14T11:41:42.956Z,595.00
2023-03-14T11:42:42.919Z,599.00
2023-03-14T11:43:42.946Z,604.00
2023-03-14T11:44:42.970Z,622.00
2023-03-14T11:45:43.337Z,625.00
2023-03-14T11:46:43.051Z,639.00
2023-03-14T11:47:44.625Z,649.00
2023-03-14T11:48:43.183Z,652.00
2023-03-14T11:49:43.075Z,671.00
2023-03-14T11:50:43.147Z,687.00
2023-03-14T11:51:43.122Z,739.00
2023-03-14T11:52:44.412Z,761.00
2023-03-14T11:53:43.148Z,790.00
2023-03-14T11:54:43.168Z,805.00
2023-03-14T11:55:43.267Z,795.00
2023-03-14T11:56:43.252Z,814.00
2023-03-14T11:57:43.268Z,808.00
2023-03-14T11:58:44.476Z,790.00
2023-03-14T11:59:43.304Z,762.00
2023-03-14T12:00:43.336Z,812.00
2023-03-14T12:01:43.398Z,836.00
2023-03-14T12:02:43.397Z,805.00
2023-03-14T12:03:43.450Z,740.00
2023-03-14T12:04:44.490Z,758.00
2023-03-14T12:05:43.458Z,759.00
2023-03-14T12:06:43.517Z,758.00
2023-03-14T12:07:43.567Z,805.00
2023-03-14T12:08:43.555Z,977.00
2023-03-14T12:09:43.554Z,1176.00
2023-03-14T12:10:43.559Z,1359.00
2023-03-14T12:11:43.592Z,1465.00
2023-03-14T12:12:43.574Z,1525.00
2023-03-14T12:13:43.602Z,1442.00
2023-03-14T12:14:43.604Z,1374.00
2023-03-14T12:15:43.625Z,1376.00
2023-03-14T12:16:43.706Z,1450.00
2023-03-14T12:17:43.641Z,1433.00
2023-03-14T12:18:43.670Z,1392.00
2023-03-14T12:19:43.728Z,1450.00
2023-03-14T12:20:43.692Z,1590.00
2023-03-14T12:21:43.721Z,1628.00
2023-03-14T12:22:43.709Z,1724.00
2023-03-14T12:23:43.758Z,1673.00
2023-03-14T12:24:43.752Z,1712.00
2023-03-14T12:25:43.810Z,1751.00
2023-03-14T12:26:43.771Z,1772.00
2023-03-14T12:27:43.752Z,1771.00
2023-03-14T12:28:43.761Z,1725.00
2023-03-14T12:29:43.769Z,1678.00
2023-03-14T12:30:43.790Z,1760.00
2023-03-14T12:31:43.870Z,1698.00
2023-03-14T12:32:43.824Z,1700.00
2023-03-14T12:33:43.803Z,1729.00
2023-03-14T12:34:44.120Z,1748.00
2023-03-14T12:35:44.001Z,1683.00
2023-03-14T12:36:43.812Z,1682.00
2023-03-14T12:37:43.837Z,1704.00
2023-03-14T12:38:43.827Z,1689.00
2023-03-14T12:39:43.831Z,1693.00
2023-03-14T12:40:43.853Z,1681.00
2023-03-14T12:41:43.841Z,1713.00
2023-03-14T12:42:45.683Z,1684.00
2023-03-14T12:43:43.835Z,1683.00
2023-03-14T12:44:43.845Z,1661.00
2023-03-14T12:45:45.253Z,1636.00
2023-03-14T12:46:43.855Z,1635.00
2023-03-14T12:47:43.861Z,1604.00
2023-03-14T12:48:43.851Z,1581.00
2023-03-14T12:49:43.855Z,1597.00
2023-03-14T12:50:43.878Z,1599.00
2023-03-14T12:51:43.873Z,1602.00
2023-03-14T12:52:45.815Z,1604.00
2023-03-14T12:53:43.884Z,1607.00
2023-03-14T12:54:43.893Z,1620.00
2023-03-14T12:55:43.926Z,1616.00
2023-03-14T12:56:43.888Z,1602.00
2023-03-14T12:57:43.897Z,1624.00
2023-03-14T12:58:45.332Z,1602.00
2023-03-14T12:59:43.906Z,1649.00
2023-03-14T13:00:43.894Z,1650.00
2023-03-14T13:01:43.902Z,1547.00
2023-03-14T13:02:43.929Z,1586.00
2023-03-14T13:03:43.971Z,1611.00
2023-03-14T13:04:44.028Z,1612.00
2023-03-14T13:05:43.914Z,1696.00
2023-03-14T13:06:43.919Z,1818.00
2023-03-14T13:07:43.923Z,1882.00
2023-03-14T13:08:44.306Z,1934.00
2023-03-14T13:09:43.924Z,1953.00
2023-03-14T13:10:44.215Z,1997.00
2023-03-14T13:11:43.916Z,2020.00
2023-03-14T13:12:43.904Z,2035.00
2023-03-14T13:13:44.815Z,2052.00
2023-03-14T13:14:43.903Z,2053.00
2023-03-14T13:15:43.917Z,2075.00
2023-03-14T13:16:43.949Z,2098.00
2023-03-14T13:17:43.911Z,2118.00
2023-03-14T13:18:43.910Z,2118.00
2023-03-14T13:19:43.904Z,2127.00
2023-03-14T13:20:43.918Z,2144.00
2023-03-14T13:21:43.916Z,2203.00
2023-03-14T13:22:43.903Z,2307.00
2023-03-14T13:23:43.921Z,2366.00
2023-03-14T13:24:43.903Z,2475.00
2023-03-14T13:25:43.889Z,2549.00
2023-03-14T13:26:43.986Z,2579.00
2023-03-14T13:27:43.896Z,2578.00
2023-03-14T13:28:43.892Z,2601.00
2023-03-14T13:29:43.903Z,2631.00
2023-03-14T13:30:43.937Z,2640.00
2023-03-14T13:31:43.917Z,2657.00
2023-03-14T13:32:43.902Z,2630.00
2023-03-14T13:33:43.888Z,2650.00
2023-03-14T13:34:43.943Z,2657.00
2023-03-14T13:35:43.917Z,2658.00
2023-03-14T13:36:43.891Z,2669.00
2023-03-14T13:37:43.877Z,2668.00
2023-03-14T13:38:43.883Z,2656.00
2023-03-14T13:39:43.989Z,2668.00
2023-03-14T14:40:43.659Z,2659.00
2023-03-14T14:45:43.658Z,2644.00
2023-03-14T16:00:43.495Z,2546.00
2023-03-14T16:01:43.465Z,2552.00
2023-03-14T16:02:43.453Z,2543.00
2023-03-14T16:03:43.457Z,2534.00
2023-03-14T16:04:43.518Z,2527.00
2023-03-14T16:05:43.479Z,2534.00
2023-03-14T16:06:43.475Z,2539.00
2023-03-14T16:07:43.470Z,2533.00
2023-03-14T16:08:43.627Z,2533.00
2023-03-14T16:09:43.475Z,2535.00
2023-03-14T16:10:43.472Z,2506.00
2023-03-14T16:11:43.484Z,2530.00
2023-03-14T16:12:43.480Z,2528.00
2023-03-14T16:13:43.479Z,2519.00
2023-03-14T16:14:43.498Z,2516.00
2023-03-14T16:15:43.511Z,2508.00
2023-03-14T16:16:43.604Z,2513.00
2023-03-14T16:17:43.481Z,2500.00
2023-03-14T16:18:43.506Z,2512.00
2023-03-14T16:19:43.495Z,2518.00
2023-03-14T16:20:48.057Z,2514.00
2023-03-14T16:21:44.532Z,2515.00
2023-03-14T16:22:43.511Z,2515.00
2023-03-14T16:23:43.497Z,2516.00
2023-03-14T16:24:43.523Z,2510.00
2023-03-14T16:25:43.519Z,2499.00
2023-03-14T16:26:43.515Z,2497.00
2023-03-14T16:27:43.505Z,2495.00
2023-03-14T16:28:43.499Z,2495.00
2023-03-14T16:29:43.515Z,2495.00
2023-03-14T16:30:43.529Z,2490.00
2023-03-14T16:31:43.649Z,2483.00
2023-03-14T16:32:43.587Z,2480.00
2023-03-14T16:33:43.528Z,2465.00
2023-03-14T16:34:43.524Z,2495.00
2023-03-14T16:35:43.598Z,2483.00
2023-03-14T16:36:43.538Z,2462.00
2023-03-14T16:37:43.528Z,2483.00
2023-03-14T16:38:43.538Z,2443.00
2023-03-14T16:40:07.186Z,2470.00
2023-03-14T16:40:44.549Z,2470.00
2023-03-14T16:41:43.540Z,2472.00
2023-03-14T16:43:14.412Z,2472.00
2023-03-14T16:43:44.549Z,2471.00
2023-03-14T16:44:43.555Z,2474.00
2023-03-14T16:45:43.587Z,2478.00
2023-03-14T16:46:43.732Z,2469.00
2023-03-14T16:47:43.588Z,2454.00
2023-03-14T16:48:43.578Z,2463.00
2023-03-14T16:49:43.563Z,2452.00
2023-03-14T16:50:43.565Z,2455.00
2023-03-14T16:51:43.573Z,2458.00
2023-03-14T16:52:43.580Z,2458.00
2023-03-14T16:53:43.578Z,2446.00
2023-03-14T16:54:43.579Z,2459.00
2023-03-14T16:55:43.606Z,2436.00
2023-03-14T16:56:43.602Z,2441.00
2023-03-14T16:57:43.601Z,2434.00
2023-03-14T16:58:43.585Z,2435.00
2023-03-14T16:59:43.598Z,2439.00
2023-03-14T17:00:43.589Z,2432.00
2023-03-14T17:01:43.634Z,2435.00
2023-03-14T17:02:43.608Z,2435.00
2023-03-14T17:03:43.689Z,2431.00
2023-03-14T17:04:43.594Z,2423.00
2023-03-14T17:05:43.593Z,2426.00
2023-03-14T17:06:43.631Z,2423.00
2023-03-14T17:07:43.605Z,2417.00
2023-03-14T17:08:43.607Z,2414.00
2023-03-14T17:09:43.625Z,2410.00
2023-03-14T17:10:43.658Z,2410.00
2023-03-14T17:11:43.605Z,2413.00
2023-03-14T17:12:43.622Z,2404.00
2023-03-14T17:13:43.623Z,2406.00
2023-03-14T17:14:43.615Z,2396.00
2023-03-14T17:15:43.633Z,2397.00
2023-03-14T17:16:43.636Z,2394.00
2023-03-14T17:17:43.641Z,2421.00
2023-03-14T17:18:43.630Z,2391.00
2023-03-14T17:19:43.636Z,2389.00
2023-03-14T17:20:43.638Z,2383.00
2023-03-14T17:21:43.649Z,2384.00
2023-03-14T17:22:43.637Z,2386.00
2023-03-14T17:23:43.652Z,2389.00
2023-03-14T17:24:43.641Z,2397.00
2023-03-14T17:25:43.644Z,2391.00
2023-03-14T17:26:43.630Z,2382.00
2023-03-14T17:27:46.039Z,2399.00
2023-03-14T17:28:43.744Z,2389.00
2023-03-14T17:29:43.761Z,2398.00
2023-03-14T17:30:43.738Z,2370.00
2023-03-14T17:31:43.790Z,2383.00
2023-03-14T17:32:43.821Z,2376.00
2023-03-14T17:33:43.744Z,2383.00
2023-03-14T17:34:43.747Z,2359.00
2023-03-14T17:35:43.768Z,2378.00
2023-03-14T17:36:43.742Z,2379.00
2023-03-14T17:37:43.749Z,2379.00
2023-03-14T17:38:43.764Z,2379.00
2023-03-14T17:39:43.749Z,2368.00
2023-03-14T17:40:43.757Z,2361.00
2023-03-14T17:41:43.747Z,2365.00
2023-03-14T17:42:43.753Z,2359.00
2023-03-14T17:43:43.741Z,2360.00
2023-03-14T17:44:43.733Z,2363.00
2023-03-14T17:45:43.750Z,2355.00
2023-03-14T17:46:43.761Z,2337.00
2023-03-14T17:47:43.780Z,2344.00
2023-03-14T17:48:43.746Z,2342.00
2023-03-14T17:49:43.730Z,2323.00
2023-03-14T17:50:43.734Z,2329.00
2023-03-14T17:51:43.721Z,2339.00
2023-03-14T17:52:43.750Z,2347.00
2023-03-14T17:53:43.730Z,2321.00
2023-03-14T17:54:43.718Z,2337.00
2023-03-14T17:55:43.728Z,2334.00
2023-03-14T17:56:43.732Z,2325.00
2023-03-14T17:57:43.737Z,2327.00
2023-03-14T17:58:43.708Z,2318.00
2023-03-14T17:59:43.714Z,2303.00
2023-03-14T18:00:43.711Z,2308.00
2023-03-14T18:01:43.853Z,2303.00
2023-03-14T18:02:43.944Z,2310.00
2023-03-14T18:03:43.725Z,2300.00
2023-03-14T18:04:43.865Z,2297.00
2023-03-14T18:05:43.713Z,2300.00
2023-03-14T18:06:43.713Z,2289.00
2023-03-14T18:07:43.732Z,2292.00
2023-03-14T18:08:43.760Z,2295.00
2023-03-14T18:09:43.756Z,2293.00
2023-03-14T18:10:43.713Z,2269.00
2023-03-14T18:11:43.723Z,2276.00
2023-03-14T18:12:43.730Z,2288.00
2023-03-14T18:13:43.720Z,2254.00
2023-03-14T18:14:43.723Z,2274.00
2023-03-14T18:15:43.785Z,2273.00
2023-03-14T18:16:43.717Z,2269.00
2023-03-14T18:17:43.728Z,2273.00
2023-03-14T18:19:43.725Z,2285.00
2023-03-14T18:20:43.706Z,2262.00
2023-03-14T18:21:43.712Z,2255.00
2023-03-14T18:22:43.721Z,2244.00
2023-03-14T18:23:43.747Z,2250.00
2023-03-14T18:24:43.704Z,2235.00
2023-03-14T18:25:43.708Z,2258.00
2023-03-14T18:26:43.723Z,2239.00
2023-03-14T18:27:43.722Z,2235.00
2023-03-14T18:28:43.712Z,2232.00
2023-03-14T18:29:43.697Z,2244.00
2023-03-14T18:30:43.697Z,2241.00
2023-03-14T18:31:43.749Z,2223.00
2023-03-14T18:32:43.749Z,2225.00
2023-03-14T18:33:43.719Z,2230.00
2023-03-14T18:34:43.695Z,2225.00
2023-03-14T18:35:43.750Z,2226.00
2023-03-14T18:36:43.694Z,2230.00
2023-03-14T18:37:45.982Z,2229.00
2023-03-14T18:38:43.832Z,2232.00
2023-03-14T18:39:43.729Z,2234.00
2023-03-14T18:40:43.702Z,2238.00
2023-03-14T18:41:43.716Z,2219.00
2023-03-14T18:42:43.705Z,2224.00
2023-03-14T18:43:43.727Z,2226.00
2023-03-14T18:44:43.725Z,2212.00
2023-03-14T18:45:43.727Z,2218.00
2023-03-14T18:46:43.829Z,2203.00
2023-03-14T18:47:43.736Z,2207.00
2023-03-14T18:48:43.746Z,2190.00
2023-03-14T18:49:43.731Z,2224.00
2023-03-14T18:50:43.723Z,2197.00
2023-03-14T18:51:43.748Z,2187.00
2023-03-14T18:52:43.739Z,2190.00
2023-03-14T18:53:43.736Z,2191.00
2023-03-14T18:54:43.747Z,2176.00
2023-03-14T18:55:43.734Z,2171.00
2023-03-14T18:56:43.737Z,2181.00
2023-03-14T18:57:43.751Z,2186.00
2023-03-14T18:58:43.738Z,2174.00
2023-03-14T18:59:43.759Z,2161.00
2023-03-14T19:00:43.778Z,2153.00
2023-03-14T19:01:43.799Z,2154.00
2023-03-14T19:02:43.738Z,2159.00
2023-03-14T19:03:43.754Z,2158.00
2023-03-14T19:04:43.745Z,2166.00
2023-03-14T19:05:43.750Z,2171.00
2023-03-14T19:06:43.725Z,2176.00
2023-03-14T19:07:43.730Z,2155.00
2023-03-14T19:08:43.742Z,2145.00
2023-03-14T19:09:43.752Z,2146.00
2023-03-14T19:10:43.727Z,2144.00
2023-03-14T19:11:43.863Z,2159.00
2023-03-14T19:12:43.857Z,2145.00
2023-03-14T19:13:43.774Z,2135.00
2023-03-14T19:14:43.728Z,2171.00
2023-03-14T19:15:43.751Z,2139.00
2023-03-14T19:16:43.790Z,2127.00
2023-03-14T19:17:43.734Z,2135.00
2023-03-14T19:18:43.728Z,2134.00
2023-03-14T19:19:43.734Z,2125.00
2023-03-14T19:20:43.721Z,2123.00
2023-03-14T19:21:43.748Z,2109.00
2023-03-14T19:22:43.840Z,2119.00
2023-03-14T19:23:43.740Z,2125.00
2023-03-14T19:24:43.736Z,2119.00
2023-03-14T19:25:43.801Z,2111.00
2023-03-14T19:26:43.738Z,2124.00
2023-03-14T19:27:43.745Z,2108.00
2023-03-14T19:28:43.759Z,2108.00
2023-03-14T19:29:43.772Z,2118.00
2023-03-14T19:30:43.741Z,2108.00
2023-03-14T19:31:43.738Z,2101.00
2023-03-14T19:32:43.867Z,2101.00
2023-03-14T19:33:43.744Z,2072.00
2023-03-14T19:34:43.732Z,2088.00
2023-03-14T19:35:43.812Z,2080.00
2023-03-14T19:36:43.733Z,2095.00
2023-03-14T19:37:43.738Z,2084.00
2023-03-14T19:38:43.729Z,2087.00
2023-03-14T19:39:43.729Z,2091.00
2023-03-14T19:40:43.736Z,2070.00
2023-03-14T19:41:43.732Z,2089.00
2023-03-14T19:42:43.717Z,2077.00
2023-03-14T19:43:43.721Z,2062.00
2023-03-14T19:44:43.729Z,2058.00
2023-03-14T19:45:43.781Z,2044.00
2023-03-14T19:46:43.739Z,2065.00
2023-03-14T19:47:43.752Z,2046.00
2023-03-14T19:48:43.744Z,2068.00
2023-03-14T19:49:43.747Z,2072.00
2023-03-14T19:50:43.734Z,2065.00
2023-03-14T19:51:43.740Z,2041.00
2023-03-14T19:52:43.747Z,2060.00
2023-03-14T19:53:43.742Z,2037.00
2023-03-14T19:54:43.752Z,2030.00
2023-03-14T19:55:43.731Z,2047.00
2023-03-14T19:56:43.731Z,2038.00
2023-03-14T19:57:43.744Z,2036.00
2023-03-14T19:58:43.734Z,2034.00
2023-03-14T19:59:43.742Z,2025.00
2023-03-14T20:00:43.719Z,2040.00
2023-03-14T20:01:43.779Z,2032.00
2023-03-14T20:02:43.898Z,2013.00
2023-03-14T20:03:43.718Z,2024.00
2023-03-14T20:04:43.724Z,2018.00
2023-03-14T20:05:43.713Z,2011.00
2023-03-14T20:06:43.716Z,2005.00
2023-03-14T20:07:43.714Z,2025.00